createdAt,value
2019-03-02T00:00:02.088Z,8.15
2019-03-02T00:02:12.349Z,8.13
2019-03-02T00:04:23.200Z,8.10
2019-03-02T00:06:35.716Z,8.10
2019-03-02T00:08:46.726Z,8.11
2019-03-02T00:10:57.506Z,8.09
2019-03-02T00:13:08.733Z,8.08
2019-03-02T00:15:21.043Z,8.10
2019-03-02T00:17:31.846Z,8.12
2019-03-02T00:19:42.685Z,8.14
2019-03-02T00:21:53.441Z,8.12
2019-03-02T00:24:04.252Z,8.10
2019-03-02T00:26:35.320Z,8.06
2019-03-02T00:28:46.150Z,8.05
2019-03-02T00:30:57.884Z,8.06
2019-03-02T00:33:11.458Z,8.06
2019-03-02T00:35:22.481Z,8.05
2019-03-02T00:37:33.768Z,8.10
2019-03-02T00:39:46.029Z,8.11
2019-03-02T00:41:56.907Z,8.07
2019-03-02T00:44:51.234Z,8.05
2019-03-02T00:47:02.172Z,8.05
2019-03-02T00:49:13.010Z,8.05
2019-03-02T00:51:23.812Z,8.02
2019-03-02T00:53:35.582Z,8.01
2019-03-02T00:55:47.322Z,8.06
2019-03-02T00:57:58.117Z,8.06
2019-03-02T01:00:28.804Z,8.05
2019-03-02T01:02:40.446Z,8.06
2019-03-02T01:04:52.556Z,8.05
2019-03-02T01:09:35.694Z,8.03
2019-03-02T01:11:46.513Z,8.05
2019-03-02T01:13:57.652Z,8.03
2019-03-02T01:16:10.041Z,8.00
2019-03-02T01:18:21.266Z,8.01
2019-03-02T01:20:33.588Z,8.07
2019-03-02T01:22:44.406Z,8.06
2019-03-02T01:24:55.212Z,8.10
2019-03-02T01:27:06.051Z,8.08
2019-03-02T01:29:19.117Z,8.03
2019-03-02T01:31:29.655Z,8.02
2019-03-02T01:33:40.454Z,8.03
2019-03-02T01:35:53.931Z,8.04
2019-03-02T01:38:04.019Z,8.04
2019-03-02T01:40:14.949Z,8.02
2019-03-02T01:42:29.395Z,8.02
2019-03-02T01:44:38.570Z,8.05
2019-03-02T01:46:49.403Z,7.99
2019-03-02T01:49:01.548Z,7.95
2019-03-02T01:51:12.922Z,7.92
2019-03-02T01:53:23.880Z,7.97
2019-03-02T01:55:34.668Z,7.97
2019-03-02T01:57:48.857Z,7.98
2019-03-02T01:59:58.180Z,7.97
2019-03-02T02:02:09.084Z,7.94
2019-03-02T02:04:22.735Z,7.95
2019-03-02T02:06:32.609Z,7.92
2019-03-02T02:08:43.421Z,7.91
2019-03-02T02:10:54.209Z,7.92
2019-03-02T02:13:06.306Z,7.92
2019-03-02T02:15:37.787Z,7.96
2019-03-02T02:17:49.565Z,7.91
2019-03-02T02:20:01.538Z,7.88
2019-03-02T02:22:12.352Z,7.80
2019-03-02T02:24:24.825Z,7.79
2019-03-02T02:26:35.982Z,7.72
2019-03-02T02:28:46.784Z,7.73
2019-03-02T02:31:01.624Z,7.74
2019-03-02T02:33:10.328Z,7.76
2019-03-02T02:35:21.134Z,7.78
2019-03-02T02:37:36.559Z,7.80
2019-03-02T02:39:44.776Z,7.77
2019-03-02T02:41:59.950Z,7.76
2019-03-02T02:44:08.269Z,7.81
2019-03-02T02:46:19.056Z,7.80
2019-03-02T02:48:31.227Z,7.79
2019-03-02T02:50:43.090Z,7.80
2019-03-02T02:52:55.280Z,7.80
2019-03-02T02:55:47.749Z,7.76
2019-03-02T02:57:58.559Z,7.71
2019-03-02T03:00:55.044Z,7.68
2019-03-02T03:03:03.756Z,7.67
2019-03-02T03:05:56.221Z,7.68
2019-03-02T03:08:07.024Z,7.68
2019-03-02T03:13:01.853Z,7.66
2019-03-02T03:15:09.881Z,7.64
2019-03-02T03:17:20.778Z,7.64
2019-03-02T03:19:32.416Z,7.63
2019-03-02T03:21:44.365Z,7.66
2019-03-02T03:24:02.974Z,7.72
2019-03-02T03:26:07.994Z,7.67
2019-03-02T03:28:18.812Z,7.66
2019-03-02T03:30:35.680Z,7.65
2019-03-02T03:32:54.614Z,7.64
2019-03-02T03:34:55.039Z,7.62
2019-03-02T03:37:08.311Z,7.61
2019-03-02T03:39:18.535Z,7.59
2019-03-02T03:41:29.374Z,7.49
2019-03-02T03:43:42.865Z,7.48
2019-03-02T03:45:52.950Z,7.40
2019-03-02T03:48:03.742Z,7.42
2019-03-02T03:50:15.842Z,7.47
2019-03-02T03:52:27.352Z,7.42
2019-03-02T03:54:40.978Z,7.42
2019-03-02T03:57:32.508Z,7.50
2019-03-02T03:59:43.421Z,7.48
2019-03-02T04:01:56.849Z,7.49
2019-03-02T04:04:06.933Z,7.48
2019-03-02T04:06:17.835Z,7.49
2019-03-02T04:08:29.862Z,7.46
2019-03-02T04:10:41.384Z,7.44
2019-03-02T04:12:52.190Z,7.44
2019-03-02T04:15:44.662Z,7.47
2019-03-02T04:17:55.483Z,7.48
2019-03-02T04:20:49.642Z,7.47
2019-03-02T04:23:42.314Z,7.47
2019-03-02T04:25:56.672Z,7.44
2019-03-02T04:28:05.832Z,7.48
2019-03-02T04:30:16.622Z,7.47
2019-03-02T04:32:28.852Z,7.43
2019-03-02T04:34:40.179Z,7.46
2019-03-02T04:36:50.966Z,7.41
2019-03-02T04:39:01.882Z,7.46
2019-03-02T04:41:12.690Z,7.49
2019-03-02T04:43:23.517Z,7.51
2019-03-02T04:45:36.462Z,7.53
2019-03-02T04:47:47.026Z,7.55
2019-03-02T04:49:57.844Z,7.54
2019-03-02T04:52:11.574Z,7.53
2019-03-02T04:54:21.388Z,7.52
2019-03-02T04:56:32.176Z,7.52
2019-03-02T04:58:43.629Z,7.55
2019-03-02T05:00:55.719Z,7.54
2019-03-02T05:03:06.519Z,7.55
2019-03-02T05:05:17.345Z,7.56
2019-03-02T05:07:30.160Z,7.57
2019-03-02T05:09:40.873Z,7.57
2019-03-02T05:11:51.701Z,7.59
2019-03-02T05:14:04.288Z,7.60
2019-03-02T05:16:15.294Z,7.58
2019-03-02T05:18:26.117Z,7.56
2019-03-02T05:20:37.805Z,7.56
2019-03-02T05:22:50.722Z,7.58
2019-03-02T05:25:43.994Z,7.54
2019-03-02T05:27:54.794Z,7.53
2019-03-02T05:30:26.860Z,7.52
2019-03-02T05:32:38.201Z,7.52
2019-03-02T05:34:49.028Z,7.49
2019-03-02T05:37:02.809Z,7.50
2019-03-02T05:39:13.844Z,7.52
2019-03-02T05:41:25.297Z,7.58
2019-03-02T05:43:36.094Z,7.58
2019-03-02T05:45:46.925Z,7.55
2019-03-02T05:48:01.012Z,7.55
2019-03-02T05:50:52.115Z,7.54
2019-03-02T05:53:03.026Z,7.53
2019-03-02T05:55:18.053Z,7.54
2019-03-02T05:57:26.536Z,7.54
2019-03-02T05:59:37.338Z,7.57
2019-03-02T06:01:48.182Z,7.60
2019-03-02T06:03:58.987Z,7.62
2019-03-02T06:06:09.821Z,7.62
2019-03-02T06:08:40.509Z,7.64
2019-03-02T06:10:51.338Z,7.64
2019-03-02T06:13:02.149Z,7.63
2019-03-02T06:18:07.733Z,7.63
2019-03-02T06:20:18.302Z,7.61
2019-03-02T06:22:29.117Z,7.60
2019-03-02T06:24:41.025Z,7.59
2019-03-02T06:29:32.741Z,7.63
2019-03-02T06:31:44.260Z,7.62
2019-03-02T06:33:55.303Z,7.63
2019-03-02T06:36:08.750Z,7.64
2019-03-02T06:38:18.864Z,7.66
2019-03-02T06:40:29.676Z,7.65
2019-03-02T06:42:41.940Z,7.66
2019-03-02T06:44:53.266Z,7.63
2019-03-02T06:47:05.704Z,7.64
2019-03-02T06:49:19.857Z,7.64
2019-03-02T06:51:29.509Z,7.66
2019-03-02T06:53:40.333Z,7.68
2019-03-02T06:55:51.131Z,7.68
2019-03-02T06:58:01.973Z,7.67
2019-03-02T07:00:54.420Z,7.68
2019-03-02T07:03:06.706Z,7.67
2019-03-02T07:05:17.938Z,7.64
2019-03-02T07:07:28.734Z,7.65
2019-03-02T07:09:41.807Z,7.61
2019-03-02T07:11:52.269Z,7.61
2019-03-02T07:14:03.092Z,7.59
2019-03-02T07:16:16.589Z,7.60
2019-03-02T07:18:46.491Z,7.59
2019-03-02T07:20:59.637Z,7.57
2019-03-02T07:23:10.038Z,7.55
2019-03-02T07:25:20.995Z,7.55
2019-03-02T07:27:31.788Z,7.54
2019-03-02T07:29:42.719Z,7.54
2019-03-02T07:31:53.520Z,7.52
2019-03-02T07:34:04.829Z,7.56
2019-03-02T07:36:17.069Z,7.61
2019-03-02T07:38:27.854Z,7.65
2019-03-02T07:40:41.304Z,7.70
2019-03-02T07:42:51.381Z,7.71
2019-03-02T07:45:43.853Z,7.69
2019-03-02T07:47:56.023Z,7.69
2019-03-02T07:50:49.059Z,7.73
2019-03-02T07:52:59.880Z,7.78
2019-03-02T07:55:53.623Z,7.76
2019-03-02T07:58:05.082Z,7.78
2019-03-02T08:00:57.558Z,7.83
2019-03-02T08:03:08.372Z,7.83
2019-03-02T08:05:19.294Z,7.85
2019-03-02T08:07:30.128Z,7.84
2019-03-02T08:09:40.936Z,7.89
2019-03-02T08:12:33.406Z,7.91
2019-03-02T08:14:44.485Z,7.96
2019-03-02T08:16:56.971Z,7.95
2019-03-02T08:19:07.786Z,7.99
2019-03-02T08:21:18.634Z,8.02
2019-03-02T08:23:29.489Z,8.01
2019-03-02T08:25:40.295Z,8.02
2019-03-02T08:27:51.701Z,8.05
2019-03-02T08:30:45.580Z,8.03
2019-03-02T08:32:57.895Z,8.08
2019-03-02T08:35:50.755Z,8.11
2019-03-02T08:38:05.068Z,8.16
2019-03-02T08:40:56.235Z,8.17
2019-03-02T08:43:08.801Z,8.25
2019-03-02T08:45:19.688Z,8.26
2019-03-02T08:47:30.515Z,8.23
2019-03-02T08:49:41.868Z,8.25
2019-03-02T08:51:54.040Z,8.23
2019-03-02T08:54:04.852Z,8.24
2019-03-02T08:56:15.699Z,8.27
2019-03-02T08:58:26.750Z,8.29
2019-03-02T09:00:38.989Z,8.34
2019-03-02T09:02:50.474Z,8.37
2019-03-02T09:05:01.287Z,8.43
2019-03-02T09:07:12.186Z,8.49
2019-03-02T09:09:23.109Z,8.56
2019-03-02T09:11:33.944Z,8.54
2019-03-02T09:13:44.775Z,8.59
2019-03-02T09:15:55.587Z,8.60
2019-03-02T09:18:06.521Z,8.59
2019-03-02T09:20:17.446Z,8.61
2019-03-02T09:22:28.294Z,8.71
2019-03-02T09:24:39.090Z,8.74
2019-03-02T09:26:49.890Z,8.76
2019-03-02T09:29:00.755Z,8.76
2019-03-02T09:31:53.202Z,8.87
2019-03-02T09:34:04.364Z,8.95
2019-03-02T09:36:16.755Z,9.17
2019-03-02T09:38:27.584Z,9.30
2019-03-02T09:40:38.419Z,9.37
2019-03-02T09:42:49.332Z,9.44
2019-03-02T09:45:00.319Z,9.37
2019-03-02T09:47:12.739Z,9.45
2019-03-02T09:49:23.924Z,9.44
2019-03-02T09:51:34.746Z,9.46
2019-03-02T09:53:45.678Z,9.48
2019-03-02T09:55:58.146Z,9.60
2019-03-02T09:58:09.225Z,9.67
2019-03-02T10:01:04.468Z,9.72
2019-03-02T10:03:14.444Z,9.78
2019-03-02T10:05:26.299Z,9.78
2019-03-02T10:07:39.236Z,9.77
2019-03-02T10:09:50.942Z,9.82
2019-03-02T10:12:01.869Z,9.89
2019-03-02T10:14:32.596Z,9.92
2019-03-02T10:16:43.405Z,9.97
2019-03-02T10:18:54.221Z,9.94
2019-03-02T10:21:05.167Z,9.91
2019-03-02T10:23:15.963Z,9.88
2019-03-02T10:25:32.023Z,9.90
2019-03-02T10:27:39.587Z,9.97
2019-03-02T10:29:50.404Z,10.00
2019-03-02T10:32:01.247Z,10.00
2019-03-02T10:34:12.101Z,9.84
2019-03-02T10:36:25.776Z,9.89
2019-03-02T10:38:35.679Z,9.93
2019-03-02T10:40:46.569Z,9.85
2019-03-02T10:42:57.377Z,9.81
2019-03-02T10:45:49.845Z,9.78
2019-03-02T10:48:00.650Z,9.82
2019-03-02T10:50:31.352Z,9.77
2019-03-02T10:52:42.180Z,9.77
2019-03-02T10:54:53.010Z,9.73
2019-03-02T10:57:03.863Z,9.74
2019-03-02T10:59:15.529Z,9.77
2019-03-02T11:01:27.543Z,9.81
2019-03-02T11:03:38.358Z,9.83
2019-03-02T11:06:09.042Z,9.86
2019-03-02T11:08:39.947Z,9.92
2019-03-02T11:11:10.630Z,9.99
2019-03-02T11:13:51.844Z,10.00
2019-03-02T11:16:22.750Z,9.97
2019-03-02T11:18:53.432Z,10.00
2019-03-02T11:21:24.163Z,10.05
2019-03-02T11:23:57.534Z,10.12
2019-03-02T11:26:27.418Z,10.15
2019-03-02T11:28:58.167Z,10.19
2019-03-02T11:31:28.846Z,10.18
2019-03-02T11:33:59.854Z,10.20
2019-03-02T11:36:30.601Z,10.20
2019-03-02T11:39:01.488Z,10.22
2019-03-02T11:44:04.627Z,10.19
2019-03-02T11:46:35.320Z,10.15
2019-03-02T11:51:27.150Z,10.21
2019-03-02T11:56:26.659Z,10.31
2019-03-02T11:58:52.089Z,10.40
2019-03-02T12:01:22.852Z,10.51
2019-03-02T12:03:53.557Z,10.59
2019-03-02T12:06:24.345Z,10.66
2019-03-02T12:08:57.929Z,10.74
2019-03-02T12:13:49.980Z,11.07
2019-03-02T12:16:22.021Z,11.13
2019-03-02T12:18:54.173Z,11.21
2019-03-02T12:21:25.990Z,11.44
2019-03-02T12:23:56.677Z,11.69
2019-03-02T12:26:27.372Z,11.78
2019-03-02T12:28:58.042Z,11.77
2019-03-02T12:31:31.908Z,11.86
2019-03-02T12:34:01.343Z,11.94
2019-03-02T12:36:32.046Z,11.98
2019-03-02T12:39:02.737Z,11.91
2019-03-02T12:41:33.484Z,11.79
2019-03-02T12:44:04.174Z,11.82
2019-03-02T12:49:15.482Z,11.58
2019-03-02T12:51:46.165Z,11.53
2019-03-02T12:54:16.834Z,11.43
2019-03-02T12:56:47.535Z,11.38
2019-03-02T13:06:18.414Z,11.35
2019-03-02T13:08:49.230Z,11.30
2019-03-02T13:13:52.763Z,11.27
2019-03-02T13:16:25.065Z,11.24
2019-03-02T13:18:55.794Z,11.26
2019-03-02T13:21:26.478Z,11.25
2019-03-02T13:26:15.547Z,11.29
2019-03-02T13:28:46.439Z,11.35
2019-03-02T13:33:49.550Z,11.48
2019-03-02T13:36:20.216Z,11.56
2019-03-02T13:38:50.950Z,11.63
2019-03-02T13:41:30.078Z,11.64
2019-03-02T13:43:54.377Z,11.63
2019-03-02T13:46:25.077Z,11.63
2019-03-02T13:48:58.289Z,11.59
2019-03-02T13:51:30.014Z,11.52
2019-03-02T13:56:33.446Z,11.49
2019-03-02T14:01:36.526Z,11.48
2019-03-02T14:08:57.991Z,11.59
2019-03-02T14:11:28.699Z,11.64
2019-03-02T14:13:59.372Z,11.66
2019-03-02T14:19:05.866Z,11.67
2019-03-02T14:21:38.762Z,11.72
2019-03-02T14:24:10.225Z,11.78
2019-03-02T14:31:21.141Z,11.85
2019-03-02T14:33:51.838Z,11.89
2019-03-02T14:36:22.737Z,11.93
2019-03-02T14:43:35.863Z,11.83
2019-03-02T14:46:07.202Z,11.87
2019-03-02T14:53:15.476Z,11.92
2019-03-02T15:00:37.037Z,11.82
2019-03-02T15:03:07.736Z,11.74
2019-03-02T15:05:38.536Z,11.71
2019-03-02T15:08:09.276Z,11.72
2019-03-02T15:10:39.968Z,11.65
2019-03-02T15:13:10.702Z,11.59
2019-03-02T15:15:41.485Z,11.60
2019-03-02T15:20:44.576Z,11.58
2019-03-02T15:25:47.642Z,11.54
2019-03-02T15:28:18.340Z,11.48
2019-03-02T15:30:49.049Z,11.45
2019-03-02T15:33:19.720Z,11.41
2019-03-02T15:35:50.432Z,11.36
2019-03-02T15:38:21.129Z,11.35
2019-03-02T15:40:51.940Z,11.32
2019-03-02T15:43:22.756Z,11.27
2019-03-02T15:45:55.409Z,11.22
2019-03-02T15:50:58.460Z,11.25
2019-03-02T15:58:24.710Z,11.33
2019-03-02T16:01:17.218Z,11.39
2019-03-02T16:03:47.923Z,11.38
2019-03-02T16:06:19.640Z,11.42
2019-03-02T16:13:49.572Z,11.41
2019-03-02T16:16:14.890Z,11.39
2019-03-02T16:18:49.186Z,11.33
2019-03-02T16:21:19.586Z,11.27
2019-03-02T16:23:50.942Z,11.21
2019-03-02T16:26:21.666Z,11.21
2019-03-02T16:28:52.378Z,11.18
2019-03-02T16:33:55.441Z,11.14
2019-03-02T16:36:26.314Z,11.10
2019-03-02T16:38:57.024Z,11.12
2019-03-02T16:41:31.163Z,11.10
2019-03-02T16:44:03.218Z,11.08
2019-03-02T16:46:35.101Z,11.07
2019-03-02T16:49:06.147Z,11.01
2019-03-02T16:51:36.995Z,10.99
2019-03-02T16:54:07.678Z,11.02
2019-03-02T16:59:10.844Z,11.00
2019-03-02T17:01:41.518Z,10.99
2019-03-02T17:06:30.856Z,11.01
2019-03-02T17:09:01.559Z,10.99
2019-03-02T17:11:35.481Z,11.01
2019-03-02T17:14:09.221Z,11.00
2019-03-02T17:19:10.099Z,10.90
2019-03-02T17:21:40.903Z,10.90
2019-03-02T17:24:11.609Z,10.85
2019-03-02T17:29:14.756Z,10.81
2019-03-02T17:31:45.453Z,10.82
2019-03-02T17:36:41.713Z,10.80
2019-03-02T17:39:11.205Z,10.77
2019-03-02T17:46:47.113Z,10.75
2019-03-02T17:49:28.210Z,10.72
2019-03-02T17:54:14.074Z,10.77
2019-03-02T17:59:04.183Z,10.71
2019-03-02T18:01:36.625Z,10.70
2019-03-02T18:04:07.320Z,10.70
2019-03-02T18:06:38.129Z,10.69
2019-03-02T18:09:08.835Z,10.67
2019-03-02T18:11:39.574Z,10.66
2019-03-02T18:14:10.265Z,10.67
2019-03-02T18:16:41.398Z,10.66
2019-03-02T18:18:53.674Z,10.64
2019-03-02T18:21:04.516Z,10.61
2019-03-02T18:23:18.951Z,10.63
2019-03-02T18:25:28.326Z,10.64
2019-03-02T18:27:39.151Z,10.63
2019-03-02T18:29:50.172Z,10.59
2019-03-02T18:32:02.271Z,10.57
2019-03-02T18:36:49.779Z,10.54
2019-03-02T18:39:00.973Z,10.57
2019-03-02T18:41:12.329Z,10.57
2019-03-02T18:43:24.351Z,10.52
2019-03-02T18:45:35.868Z,10.52
2019-03-02T18:47:47.948Z,10.49
2019-03-02T18:50:18.627Z,10.49
2019-03-02T18:52:49.336Z,10.44
2019-03-02T18:55:00.284Z,10.46
2019-03-02T18:57:13.198Z,10.46
2019-03-02T18:59:23.911Z,10.43
2019-03-02T19:02:16.388Z,10.42
2019-03-02T19:05:09.756Z,10.39
2019-03-02T19:07:21.500Z,10.41
2019-03-02T19:09:33.335Z,10.42
2019-03-02T19:11:45.049Z,10.48
2019-03-02T19:13:55.853Z,10.43
2019-03-02T19:16:06.662Z,10.44
2019-03-02T19:18:17.511Z,10.39
2019-03-02T19:20:28.339Z,10.38
2019-03-02T19:22:39.218Z,10.42
2019-03-02T19:24:50.157Z,10.38
2019-03-02T19:27:01.000Z,10.42
2019-03-02T19:29:11.836Z,10.41
2019-03-02T19:31:22.780Z,10.34
2019-03-02T19:33:33.711Z,10.34
2019-03-02T19:35:44.540Z,10.33
2019-03-02T19:37:55.357Z,10.34
2019-03-02T19:40:47.806Z,10.30
2019-03-02T19:42:58.748Z,10.32
2019-03-02T19:45:51.234Z,10.32
2019-03-02T19:48:02.071Z,10.33
2019-03-02T19:50:32.812Z,10.25
2019-03-02T19:52:43.751Z,10.27
2019-03-02T19:54:54.595Z,10.24
2019-03-02T19:57:05.467Z,10.20
2019-03-02T19:59:16.301Z,10.19
2019-03-02T20:01:27.082Z,10.19
2019-03-02T20:03:38.213Z,10.11
2019-03-02T20:05:49.022Z,10.07
2019-03-02T20:07:59.851Z,10.04
2019-03-02T20:10:52.329Z,10.02
2019-03-02T20:13:03.152Z,10.00
2019-03-02T20:15:55.675Z,9.97
2019-03-02T20:18:06.494Z,10.02
2019-03-02T20:20:58.954Z,10.05
2019-03-02T20:23:09.806Z,10.06
2019-03-02T20:25:20.648Z,9.98
2019-03-02T20:27:31.486Z,9.99
2019-03-02T20:29:42.278Z,10.04
2019-03-02T20:31:53.132Z,10.03
2019-03-02T20:34:04.048Z,10.35
2019-03-02T20:36:14.894Z,10.56
2019-03-02T20:38:25.827Z,10.90
2019-03-02T20:40:36.658Z,11.17
2019-03-02T20:42:47.491Z,11.25
2019-03-02T20:44:58.320Z,11.04
2019-03-02T20:47:09.149Z,10.85
2019-03-02T20:49:19.957Z,10.66
2019-03-02T20:51:30.768Z,10.48
2019-03-02T20:53:41.755Z,10.38
2019-03-02T20:55:52.553Z,10.34
2019-03-02T20:58:03.516Z,10.33
2019-03-02T21:00:34.988Z,10.27
2019-03-02T21:02:45.833Z,10.22
2019-03-02T21:04:56.630Z,10.15
2019-03-02T21:07:07.459Z,10.10
2019-03-02T21:09:18.385Z,10.10
2019-03-02T21:11:29.212Z,10.07
2019-03-02T21:13:40.144Z,10.10
2019-03-02T21:15:50.970Z,10.01
2019-03-02T21:18:02.183Z,9.98
2019-03-02T21:20:54.635Z,9.94
2019-03-02T21:23:05.673Z,9.93
2019-03-02T21:25:16.702Z,9.88
2019-03-02T21:27:27.542Z,9.91
2019-03-02T21:29:38.354Z,9.90
2019-03-02T21:31:49.181Z,9.92
2019-03-02T21:34:00.026Z,9.89
2019-03-02T21:36:10.946Z,9.86
2019-03-02T21:38:21.777Z,9.81
2019-03-02T21:41:14.229Z,9.81
2019-03-02T21:43:25.089Z,9.77
2019-03-02T21:45:36.009Z,9.79
2019-03-02T21:47:47.161Z,9.75
2019-03-02T21:49:57.998Z,9.77
2019-03-02T21:55:01.083Z,9.77
2019-03-02T21:57:12.042Z,9.78
2019-03-02T21:59:22.885Z,9.76
2019-03-02T22:01:33.736Z,9.77
2019-03-02T22:03:44.596Z,9.75
2019-03-02T22:05:55.399Z,9.71
2019-03-02T22:08:06.228Z,9.73
2019-03-02T22:10:58.696Z,9.74
2019-03-02T22:13:09.525Z,9.70
2019-03-02T22:15:20.349Z,9.75
2019-03-02T22:17:31.149Z,9.77
2019-03-02T22:19:41.977Z,9.75
2019-03-02T22:21:52.792Z,9.76
2019-03-02T22:24:03.703Z,9.75
2019-03-02T22:26:36.288Z,9.71
2019-03-02T22:28:47.131Z,9.72
2019-03-02T22:30:57.957Z,9.70
2019-03-02T22:33:08.767Z,9.71
2019-03-02T22:35:19.701Z,9.72
2019-03-02T22:37:30.502Z,9.64
2019-03-02T22:39:41.340Z,9.67
2019-03-02T22:41:52.182Z,9.67
2019-03-02T22:44:03.101Z,9.62
2019-03-02T22:46:13.923Z,9.65
2019-03-02T22:48:24.724Z,9.63
2019-03-02T22:50:35.565Z,9.64
2019-03-02T22:52:46.515Z,9.64
2019-03-02T22:54:57.431Z,9.67
2019-03-02T22:57:08.272Z,9.61
2019-03-02T22:59:19.083Z,9.64
2019-03-02T23:02:09.672Z,9.70
2019-03-02T23:04:20.451Z,9.71
2019-03-02T23:06:31.266Z,9.70
2019-03-02T23:08:42.130Z,9.69
2019-03-02T23:10:52.933Z,9.74
2019-03-02T23:13:03.738Z,9.70
2019-03-02T23:15:56.193Z,9.65
2019-03-02T23:18:07.117Z,9.65
2019-03-02T23:20:18.054Z,9.63
2019-03-02T23:22:28.874Z,9.59
2019-03-02T23:24:39.671Z,9.60
2019-03-02T23:26:50.513Z,9.66
2019-03-02T23:29:01.340Z,9.63
2019-03-02T23:31:12.139Z,9.66
2019-03-02T23:33:23.015Z,9.62
2019-03-02T23:35:33.941Z,9.62
2019-03-02T23:37:44.773Z,9.63
2019-03-02T23:39:55.579Z,9.63
2019-03-02T23:42:06.451Z,9.64
2019-03-02T23:44:17.249Z,9.64
2019-03-02T23:46:28.077Z,9.66
2019-03-02T23:48:38.887Z,9.66
2019-03-02T23:50:49.686Z,9.68
2019-03-02T23:53:00.522Z,9.71
2019-03-02T23:55:52.980Z,9.68
2019-03-02T23:58:45.443Z,9.69
